Time;durP1;ratioP1;P1;durP2;ratioP2;P2;SDS_P1;SDS_P2;PMS_P1;PMS_P2;Temp;Humidity;BMP_temperature;BMP_pressure;BME280_temperature;BME280_humidity;BME280_pressure;Samples;Min_cycle;Max_cycle;Signal;HPM_P1;HPM_P2
2021/10/28 00:12:13;;;;;;;16.90;11.07;;;;;;;10.40;55.28;101915.47;5029539;28;20032;-69
2021/10/28 00:12:58;;;;;;;18.58;10.07;;;;;;;10.29;54.78;101907.84;5028877;28;20438;-69
2021/10/28 00:15:31;;;;;;;19.23;9.80;;;;;;;10.16;55.28;101907.25;5027027;28;20511;-69
2021/10/28 00:20:30;;;;;;;15.52;9.02;;;;;;;10.31;54.55;101902.63;5031723;28;22267;-70
2021/10/28 00:22:57;;;;;;;19.85;9.68;;;;;;;10.13;54.88;101901.25;5044378;28;20359;-70
2021/10/28 00:25:23;;;;;;;17.77;10.38;;;;;;;9.53;57.07;101907.66;5031231;28;20124;-69
2021/10/28 00:27:52;;;;;;;21.83;9.70;;;;;;;9.94;56.31;101898.16;5046460;28;20175;-67
2021/10/28 00:30:19;;;;;;;18.33;10.85;;;;;;;9.62;57.13;101899.66;5031998;28;20040;-67
2021/10/28 00:32:45;;;;;;;20.25;9.77;;;;;;;10.10;55.65;101894.34;5031497;28;20043;-67
2021/10/28 00:35:11;;;;;;;15.50;10.27;;;;;;;10.22;55.24;101890.59;5034765;28;20105;-67
2021/10/28 00:37:37;;;;;;;15.40;10.10;;;;;;;9.80;57.06;101895.84;5031521;28;20113;-71
2021/10/28 00:40:08;;;;;;;17.30;10.25;;;;;;;10.20;55.45;101888.03;5035783;28;20128;-72
2021/10/28 00:42:37;;;;;;;19.02;9.90;;;;;;;10.57;54.56;101887.19;5034865;28;20037;-72
2021/10/28 00:45:05;;;;;;;19.92;11.30;;;;;;;10.73;54.22;101886.81;5036614;28;20045;-71
2021/10/28 00:47:34;;;;;;;19.25;10.63;;;;;;;10.26;55.34;101892.25;5035308;28;20045;-74
2021/10/28 00:50:01;;;;;;;22.52;11.15;;;;;;;10.39;55.25;101893.72;5051457;28;20167;-70
2021/10/28 00:52:26;;;;;;;15.95;10.38;;;;;;;10.80;53.94;101891.00;5031713;28;20034;-66
2021/10/28 00:54:52;;;;;;;18.05;11.07;;;;;;;10.67;54.36;101892.19;5030600;28;20028;-66
2021/10/28 00:57:18;;;;;;;23.67;10.98;;;;;;;10.66;54.42;101900.91;5036903;28;20041;-72
2021/10/28 00:59:44;;;;;;;22.33;10.57;;;;;;;10.70;54.17;101892.97;5034610;28;20029;-67
2021/10/28 01:02:10;;;;;;;23.83;11.23;;;;;;;10.00;56.44;101885.00;5018451;28;20128;-66
2021/10/28 01:04:37;;;;;;;19.17;10.70;;;;;;;10.42;55.52;101888.41;5032645;28;20033;-66
2021/10/28 01:07:03;;;;;;;19.73;11.55;;;;;;;10.31;55.59;101893.00;5032989;28;20098;-67
2021/10/28 01:09:29;;;;;;;23.27;10.88;;;;;;;10.79;54.12;101878.78;5037055;28;20124;-65
2021/10/28 01:11:55;;;;;;;23.88;12.63;;;;;;;10.76;54.25;101897.19;5035184;28;20083;-66
2021/10/28 01:14:21;;;;;;;18.90;10.55;;;;;;;10.25;55.60;101894.91;5033747;28;20108;-69
2021/10/28 01:16:48;;;;;;;18.23;10.90;;;;;;;10.53;54.74;101890.75;5049773;28;20033;-69
2021/10/28 01:19:14;;;;;;;26.40;11.68;;;;;;;10.53;54.96;101893.38;5035478;28;20436;-68
2021/10/28 01:21:40;;;;;;;17.83;9.77;;;;;;;10.99;53.84;101894.03;5036635;28;20041;-68
2021/10/28 01:24:06;;;;;;;19.67;11.80;;;;;;;10.93;53.52;101889.81;5038979;28;20033;-71
2021/10/28 01:26:32;;;;;;;18.35;10.43;;;;;;;11.10;52.93;101892.00;5031256;28;20072;-66
2021/10/28 01:29:02;;;;;;;21.50;10.73;;;;;;;11.04;53.14;101897.41;5032281;28;20154;-66
2021/10/28 01:31:31;;;;;;;17.88;10.68;;;;;;;10.59;54.90;101895.84;5033918;28;20405;-68
2021/10/28 01:33:59;;;;;;;16.55;10.57;;;;;;;10.53;54.62;101893.38;5034179;28;20044;-68
2021/10/28 01:36:26;;;;;;;17.02;11.05;;;;;;;10.75;54.02;101895.47;5045367;28;20044;-68
2021/10/28 01:38:52;;;;;;;21.48;12.25;;;;;;;11.01;53.09;101892.22;5032952;28;20394;-67
2021/10/28 01:41:18;;;;;;;15.88;10.48;;;;;;;11.04;53.48;101889.56;5047729;28;20141;-68
2021/10/28 01:43:44;;;;;;;21.10;11.98;;;;;;;10.47;54.64;101890.91;5040970;28;20039;-66
2021/10/28 01:46:10;;;;;;;19.52;11.10;;;;;;;10.56;54.84;101892.44;5029793;28;20049;-68
2021/10/28 01:48:40;;;;;;;21.23;12.02;;;;;;;10.62;54.45;101887.06;5032111;28;20037;-66
2021/10/28 01:51:07;;;;;;;21.65;11.88;;;;;;;10.87;53.63;101889.13;5036877;28;20045;-66
2021/10/28 01:53:37;;;;;;;22.60;12.25;;;;;;;10.97;53.26;101880.13;5033770;28;20032;-66
2021/10/28 01:56:04;;;;;;;16.83;11.00;;;;;;;10.78;53.63;101882.31;5030388;28;20170;-66
2021/10/28 01:58:30;;;;;;;20.17;12.90;;;;;;;11.03;53.01;101874.75;5034306;28;20593;-65
2021/10/28 02:00:55;;;;;;;22.38;12.57;;;;;;;10.86;53.78;101867.34;5040588;28;20548;-66
2021/10/28 02:03:21;;;;;;;17.83;11.55;;;;;;;10.25;55.01;101863.53;5031707;28;20701;-66
2021/10/28 02:05:47;;;;;;;18.05;11.27;;;;;;;10.09;55.66;101857.81;5031161;28;20045;-65
2021/10/28 02:08:13;;;;;;;18.48;10.30;;;;;;;10.68;53.94;101859.91;5030152;28;20096;-65
2021/10/28 02:10:39;;;;;;;23.25;11.15;;;;;;;10.68;53.90;101860.75;5030699;28;20045;-66
2021/10/28 02:13:05;;;;;;;17.23;10.60;;;;;;;10.78;53.83;101864.88;5032600;28;20045;-70
2021/10/28 02:15:31;;;;;;;16.15;10.93;;;;;;;10.57;54.43;101870.63;5032175;28;20356;-66
2021/10/28 02:17:56;;;;;;;17.83;10.27;;;;;;;10.71;53.81;101858.09;5046832;28;20520;-69
2021/10/28 02:20:22;;;;;;;21.25;11.75;;;;;;;10.80;53.24;101851.75;5032026;28;20123;-68
2021/10/28 02:22:49;;;;;;;17.15;9.43;;;;;;;10.85;52.88;101855.16;5030126;28;20071;-71
2021/10/28 02:25:15;;;;;;;19.38;9.43;;;;;;;10.77;52.94;101859.66;5033370;28;20068;-71
2021/10/28 02:27:50;;;;;;;12.98;9.52;;;;;;;10.90;52.91;101863.72;5028859;28;20033;-71
2021/10/28 02:30:17;;;;;;;16.95;9.20;;;;;;;10.83;52.78;101856.94;5033077;28;20662;-70
2021/10/28 02:32:43;;;;;;;21.25;9.57;;;;;;;10.73;52.61;101851.06;5033624;28;20028;-71
2021/10/28 02:35:09;;;;;;;15.85;8.35;;;;;;;10.74;52.83;101846.69;5030141;28;20495;-71
2021/10/28 02:37:36;;;;;;;19.00;9.32;;;;;;;10.42;53.71;101849.19;5032177;28;20029;-69
2021/10/28 02:40:01;;;;;;;17.98;9.70;;;;;;;10.40;53.55;101848.38;5033555;28;20259;-69
2021/10/28 02:42:27;;;;;;;17.73;9.48;;;;;;;10.49;53.28;101846.44;5031119;28;20048;-70
2021/10/28 02:44:52;;;;;;;17.02;8.50;;;;;;;10.25;54.11;101843.50;5045640;28;20048;-71
2021/10/28 02:47:18;;;;;;;25.15;9.38;;;;;;;10.57;53.24;101834.91;5031159;28;20069;-71
2021/10/28 02:49:44;;;;;;;17.60;9.27;;;;;;;10.34;53.67;101839.81;5033206;28;20163;-71
2021/10/28 02:52:10;;;;;;;13.50;8.75;;;;;;;9.97;54.67;101840.66;5034670;28;20045;-72
2021/10/28 02:54:37;;;;;;;23.02;9.23;;;;;;;10.32;53.13;101836.38;5030514;28;20383;-71
2021/10/28 02:57:06;;;;;;;15.25;9.40;;;;;;;10.36;53.27;101831.03;5029720;28;20080;-72
2021/10/28 02:59:32;;;;;;;15.55;9.25;;;;;;;10.46;52.96;101825.59;5033017;28;20535;-71
2021/10/28 03:01:59;;;;;;;17.30;9.38;;;;;;;10.30;53.52;101830.31;5030758;28;20039;-72
2021/10/28 03:04:25;;;;;;;15.73;8.57;;;;;;;10.27;53.29;101826.03;5030859;28;20044;-66
2021/10/28 03:06:51;;;;;;;15.70;8.77;;;;;;;9.94;54.20;101827.66;5030940;28;20042;-67
2021/10/28 03:09:22;;;;;;;14.82;8.63;;;;;;;10.07;53.95;101829.09;5029536;28;20513;-67
2021/10/28 03:11:50;;;;;;;17.30;9.85;;;;;;;10.05;53.90;101820.44;5027782;28;20090;-68
2021/10/28 03:14:23;;;;;;;15.00;8.50;;;;;;;9.76;54.35;101818.44;5028859;28;20167;-68
2021/10/28 03:27:22;;;;;;;13.25;8.23;;;;;;;9.52;53.51;101818.09;5031877;28;20029;-68
2021/10/28 03:29:47;;;;;;;17.20;8.85;;;;;;;9.25;54.62;101813.41;5030281;28;20103;-67
2021/10/28 03:32:13;;;;;;;14.35;7.90;;;;;;;9.26;54.49;101818.59;5029833;28;20029;-67
2021/10/28 03:34:39;;;;;;;13.43;9.63;;;;;;;8.92;55.40;101818.38;5031929;28;20033;-71
2021/10/28 04:08:56;;;;;;;13.10;7.32;;;;;;;8.73;55.11;101802.19;5035611;28;20075;-75
2021/10/28 04:30:18;;;;;;;15.15;7.35;;;;;;;8.50;55.83;101789.53;5035424;28;20028;-67
2021/10/28 04:32:44;;;;;;;12.93;7.68;;;;;;;8.52;55.59;101792.97;5033896;28;20073;-69
2021/10/28 04:35:10;;;;;;;12.95;6.93;;;;;;;8.53;55.45;101786.84;5034514;28;20036;-68
2021/10/28 04:37:39;;;;;;;17.77;8.40;;;;;;;8.52;55.42;101788.59;5033813;28;20025;-68
2021/10/28 04:40:08;;;;;;;12.48;7.55;;;;;;;8.55;55.37;101791.16;5031539;28;20878;-71
2021/10/28 04:42:34;;;;;;;12.07;6.68;;;;;;;8.50;55.36;101786.91;5033722;28;20441;-70
2021/10/28 04:44:59;;;;;;;14.45;7.03;;;;;;;8.41;55.79;101787.94;5032882;28;20044;-69
2021/10/28 04:47:25;;;;;;;12.30;7.35;;;;;;;8.37;55.56;101786.25;5034521;28;20486;-68
2021/10/28 04:49:51;;;;;;;12.07;7.07;;;;;;;8.36;56.30;101781.94;5033408;28;20036;-72
2021/10/28 04:52:16;;;;;;;21.60;6.80;;;;;;;8.46;55.69;101778.28;5034066;28;20415;-72
2021/10/28 04:54:42;;;;;;;12.25;7.50;;;;;;;8.27;56.41;101774.25;5036703;28;20033;-72
2021/10/28 04:57:08;;;;;;;14.73;7.18;;;;;;;8.33;55.69;101780.22;5040157;28;20064;-73
2021/10/28 04:59:34;;;;;;;13.80;6.10;;;;;;;8.35;55.70;101785.41;5033283;28;20036;-74
2021/10/28 05:01:59;;;;;;;11.05;5.80;;;;;;;8.25;55.93;101792.53;5036086;28;20045;-72
2021/10/28 05:04:25;;;;;;;9.23;5.63;;;;;;;8.34;55.99;101788.91;5043335;28;20923;-73
2021/10/28 05:06:51;;;;;;;10.55;7.03;;;;;;;8.35;56.00;101790.63;5031730;28;20163;-71
2021/10/28 05:09:18;;;;;;;11.70;6.70;;;;;;;8.11;56.51;101787.53;5037964;28;20037;-67
2021/10/28 05:11:46;;;;;;;12.77;6.95;;;;;;;8.38;55.53;101789.72;5032208;28;20044;-67
2021/10/28 05:14:11;;;;;;;14.50;6.60;;;;;;;8.23;55.86;101786.47;5035817;28;20037;-70
2021/10/28 05:16:37;;;;;;;16.02;7.30;;;;;;;8.14;56.18;101784.88;5031592;28;20040;-72
2021/10/28 05:19:03;;;;;;;12.02;7.30;;;;;;;8.24;55.83;101788.19;5037021;28;20039;-69
2021/10/28 05:21:31;;;;;;;13.35;7.55;;;;;;;8.20;55.88;101783.91;5031477;28;20053;-68
2021/10/28 05:23:56;;;;;;;11.63;6.18;;;;;;;8.14;56.17;101784.03;5037663;28;20063;-73
2021/10/28 05:26:22;;;;;;;13.80;7.25;;;;;;;8.27;55.56;101785.56;5036008;28;20473;-71
2021/10/28 05:28:48;;;;;;;14.70;7.28;;;;;;;8.22;56.19;101789.94;5036187;28;20025;-70
2021/10/28 05:31:13;;;;;;;12.93;6.93;;;;;;;8.18;55.92;101787.41;5032669;28;20044;-71
2021/10/28 05:33:39;;;;;;;12.75;6.65;;;;;;;8.27;55.55;101777.75;5034340;28;20676;-70
2021/10/28 05:36:05;;;;;;;13.43;6.78;;;;;;;8.33;55.28;101779.38;5035650;28;20041;-70
2021/10/28 05:38:31;;;;;;;18.52;8.00;;;;;;;8.23;55.68;101780.41;5032048;28;20044;-73
2021/10/28 05:40:56;;;;;;;12.48;6.85;;;;;;;8.25;55.46;101774.28;5032962;28;20048;-71
2021/10/28 05:43:22;;;;;;;12.13;6.30;;;;;;;8.31;55.34;101779.38;5033217;28;20061;-73
2021/10/28 05:45:49;;;;;;;17.63;8.38;;;;;;;8.23;55.27;101772.59;5042547;28;20528;-73
2021/10/28 05:48:14;;;;;;;19.10;8.60;;;;;;;8.08;56.28;101777.16;5031796;28;20137;-75
2021/10/28 05:50:41;;;;;;;17.45;8.55;;;;;;;8.19;55.90;101773.53;5034963;28;20100;-73
2021/10/28 05:53:08;;;;;;;15.77;8.43;;;;;;;8.14;56.00;101769.25;5037294;28;20029;-73
2021/10/28 05:55:34;;;;;;;16.08;7.88;;;;;;;8.29;55.29;101772.47;5035629;28;20513;-72
2021/10/28 05:57:59;;;;;;;17.83;7.80;;;;;;;8.19;55.66;101778.75;5035585;28;20048;-71
2021/10/28 06:00:25;;;;;;;15.73;8.20;;;;;;;8.16;55.69;101771.84;5035969;28;20102;-74
2021/10/28 06:02:51;;;;;;;19.00;7.30;;;;;;;8.30;55.01;101774.22;5043925;28;20135;-72
2021/10/28 06:05:17;;;;;;;13.20;8.10;;;;;;;8.32;54.73;101775.91;5042493;28;20043;-72
2021/10/28 06:07:43;;;;;;;15.63;7.93;;;;;;;8.25;55.21;101770.81;5032070;28;20068;-69
2021/10/28 06:10:11;;;;;;;15.77;9.13;;;;;;;8.17;55.24;101775.28;5034388;28;20041;-70
2021/10/28 06:12:40;;;;;;;14.40;8.02;;;;;;;8.08;55.79;101771.94;5054670;28;20052;-71
2021/10/28 06:15:07;;;;;;;15.45;8.32;;;;;;;8.31;54.70;101768.13;5043074;28;20052;-70
2021/10/28 06:17:36;;;;;;;17.58;8.45;;;;;;;8.20;55.11;101770.88;5042929;28;20074;-71
2021/10/28 06:20:03;;;;;;;16.67;8.63;;;;;;;8.18;55.12;101771.78;5036080;28;20044;-66
2021/10/28 06:22:29;;;;;;;12.85;8.10;;;;;;;8.20;55.05;101764.81;5049598;28;20040;-66
2021/10/28 06:24:56;;;;;;;13.85;7.80;;;;;;;8.35;54.57;101767.19;5037406;28;20132;-68
2021/10/28 06:27:23;;;;;;;16.75;9.35;;;;;;;8.41;54.28;101766.22;5040998;28;20025;-69
2021/10/28 06:29:48;;;;;;;14.63;9.02;;;;;;;8.37;54.21;101762.81;5035984;28;20025;-67
2021/10/28 06:32:15;;;;;;;15.68;9.13;;;;;;;8.35;54.49;101759.38;5033734;28;20548;-67
2021/10/28 06:34:43;;;;;;;15.63;8.35;;;;;;;8.33;54.39;101755.94;5031574;28;20139;-67
2021/10/28 06:37:09;;;;;;;15.98;8.57;;;;;;;8.25;54.53;101755.19;5032331;28;20037;-67
2021/10/28 06:39:35;;;;;;;14.40;8.55;;;;;;;8.34;54.39;101753.31;5025816;28;20029;-66
2021/10/28 06:42:03;;;;;;;17.42;8.65;;;;;;;8.42;54.25;101767.94;5037602;28;20041;-69
2021/10/28 06:44:29;;;;;;;18.33;8.52;;;;;;;8.38;54.45;101759.31;5036917;28;20076;-68
2021/10/28 06:46:55;;;;;;;16.58;8.52;;;;;;;8.40;54.21;101757.53;5037440;28;20065;-67
2021/10/28 06:49:22;;;;;;;13.95;9.32;;;;;;;8.29;54.56;101762.06;5035312;28;20076;-69
2021/10/28 06:51:48;;;;;;;16.50;8.05;;;;;;;8.31;54.90;101762.91;5041404;28;20105;-69
2021/10/28 06:54:25;;;;;;;19.27;8.43;;;;;;;8.23;55.21;101760.44;5038625;28;20067;-70
2021/10/28 07:04:57;;;;;;;14.27;8.60;;;;;;;8.63;53.73;101764.09;5036989;28;20040;-67
2021/10/28 07:07:24;;;;;;;15.48;8.80;;;;;;;8.62;53.82;101765.00;5037129;28;20033;-67
2021/10/28 07:15:09;;;;;;;16.75;9.10;;;;;;;9.00;53.34;101759.09;5029783;28;20029;-67
2021/10/28 07:33:23;;;;;;;20.98;10.75;;;;;;;9.54;51.37;101771.06;5006856;28;20316;-66
2021/10/28 07:36:41;;;;;;;18.25;9.25;;;;;;;9.54;51.54;101771.06;5029489;28;20045;-67
2021/10/28 07:39:14;;;;;;;17.08;9.13;;;;;;;10.76;50.00;101776.91;5040513;28;20045;-66
2021/10/28 07:57:43;;;;;;;13.00;6.90;;;;;;;17.54;32.66;101765.34;5027915;28;20045;-67
2021/10/28 08:00:24;;;;;;;17.52;7.32;;;;;;;17.72;32.81;101763.47;5027505;28;20038;-66
2021/10/28 08:14:23;;;;;;;12.02;6.32;;;;;;;17.59;32.33;101761.47;5027854;28;20037;-66
2021/10/28 08:22:09;;;;;;;13.73;6.93;;;;;;;17.03;33.75;101758.34;5027616;28;20041;-68
2021/10/28 08:29:45;;;;;;;15.05;6.40;;;;;;;16.47;34.30;101743.66;5030097;28;20127;-66
2021/10/28 08:32:11;;;;;;;12.20;6.97;;;;;;;16.30;35.14;101744.50;5028548;28;20056;-66
2021/10/28 08:34:37;;;;;;;11.15;6.55;;;;;;;16.22;35.60;101741.41;5038211;28;20272;-70
2021/10/28 08:37:14;;;;;;;12.43;6.50;;;;;;;15.66;36.20;101734.44;5026068;28;20045;-65
2021/10/28 08:39:49;;;;;;;12.15;7.57;;;;;;;15.07;36.99;101737.16;5026917;28;20034;-65
2021/10/28 08:42:17;;;;;;;14.88;8.32;;;;;;;14.71;38.74;101732.59;5038125;28;20498;-66
2021/10/28 08:44:56;;;;;;;15.30;6.13;;;;;;;15.09;36.98;101724.75;5027853;28;20578;-65
2021/10/28 08:47:24;;;;;;;13.13;7.22;;;;;;;15.23;37.53;101715.41;5025949;28;20041;-67
2021/10/28 08:49:56;;;;;;;9.27;6.22;;;;;;;14.85;37.99;101716.19;5027132;28;20683;-66
2021/10/28 08:55:39;;;;;;;10.77;5.75;;;;;;;14.98;37.80;101711.25;5032397;28;19920;-67
2021/10/28 09:25:25;;;;;;;8.95;4.38;;;;;;;15.41;37.39;101680.31;4984017;28;20161;-67
2021/10/28 09:28:01;;;;;;;8.38;4.55;;;;;;;15.01;38.07;101676.88;4966349;28;20144;-67
2021/10/28 09:30:48;;;;;;;8.50;4.60;;;;;;;14.92;38.40;101688.66;4982930;28;20121;-67
2021/10/28 09:33:24;;;;;;;9.07;4.97;;;;;;;14.95;38.06;101674.53;4982314;28;20332;-67
2021/10/28 09:36:15;;;;;;;7.57;3.85;;;;;;;15.31;37.23;101668.50;4981520;28;20065;-68
2021/10/28 09:44:42;;;;;;;5.70;3.40;;;;;;;15.64;36.85;101657.25;4976501;28;20034;-66
2021/10/28 09:48:04;;;;;;;8.85;4.55;;;;;;;15.58;37.19;101655.78;4964251;28;20069;-67
2021/10/28 09:50:36;;;;;;;;;;;;;;;16.54;35.49;101654.47;4964962;28;20038;-68
2021/10/28 09:53:12;;;;;;;9.85;4.32;;;;;;;16.63;35.60;101653.97;4965080;28;19918;-65
2021/10/28 09:58:27;;;;;;;8.90;4.25;;;;;;;15.44;36.73;101645.03;4977671;28;20097;-66
2021/10/28 10:00:55;;;;;;;8.70;4.65;;;;;;;15.63;36.53;101645.88;4979302;28;20100;-66
2021/10/28 10:03:30;;;;;;;7.22;3.90;;;;;;;16.17;36.42;101641.41;4980692;28;20044;-65
2021/10/28 10:06:02;;;;;;;7.78;3.97;;;;;;;16.27;36.36;101641.78;4978806;28;20507;-67
2021/10/28 10:08:28;;;;;;;;;;;;;;;16.61;35.45;101645.28;4983346;28;20148;-66
2021/10/28 10:10:53;;;;;;;5.97;3.75;;;;;;;16.67;35.02;101647.59;4980689;28;20013;-66
2021/10/28 10:13:24;;;;;;;6.00;4.13;;;;;;;16.80;34.60;101643.41;4966606;28;20392;-69
2021/10/28 10:15:56;;;;;;;17.45;9.32;;;;;;;16.41;36.15;101639.28;4982325;28;20066;-66
2021/10/28 10:18:23;;;;;;;8.80;3.85;;;;;;;17.02;35.13;101639.56;4966405;28;20134;-67
2021/10/28 10:21:00;;;;;;;7.15;4.18;;;;;;;17.04;35.17;101637.69;4982077;28;20042;-67
2021/10/28 10:23:49;;;;;;;5.03;3.63;;;;;;;17.33;34.54;101643.97;4967353;28;20033;-68
2021/10/28 11:22:18;;;;;;;4.55;2.30;;;;;;;18.11;32.93;101588.34;4969055;28;20098;-66
2021/10/28 12:20:57;;;;;;;;;;;;;;;16.28;37.35;101501.06;4978540;28;20041;-66
2021/10/28 12:23:44;;;;;;;7.40;3.60;;;;;;;15.87;37.19;101501.44;4980349;28;19972;-66
2021/10/28 12:46:33;;;;;;;6.50;3.10;;;;;;;17.61;34.02;101453.00;4926632;29;20447;-66
2021/10/28 12:49:41;;;;;;;6.95;3.40;;;;;;;18.03;32.81;101447.81;4910511;29;20126;-67
2021/10/28 13:03:33;;;;;;;6.10;3.50;;;;;;;18.51;32.38;101426.25;4986712;28;20213;-66
2021/10/28 13:36:07;;;;;;;6.90;3.47;;;;;;;19.80;30.35;101377.81;4980898;28;20046;-67
2021/10/28 14:24:53;;;;;;;6.25;3.70;;;;;;;19.80;29.90;101333.56;4960435;28;20472;-66
2021/10/28 15:03:01;;;;;;;5.47;4.45;;;;;;;16.31;36.22;101297.78;4977829;28;20357;-66
2021/10/28 15:35:34;;;;;;;7.97;5.55;;;;;;;14.54;40.92;101286.19;4977171;28;20089;-66
2021/10/28 15:54:47;;;;;;;9.02;5.50;;;;;;;13.66;43.00;101279.00;4980062;28;20041;-66
2021/10/28 15:57:22;;;;;;;9.23;5.28;;;;;;;13.55;43.59;101277.78;4978240;28;20244;-65
2021/10/28 16:21:50;;;;;;;15.48;5.57;;;;;;;12.37;45.69;101268.84;4981296;28;20060;-64
2021/10/28 16:24:16;;;;;;;6.60;4.88;;;;;;;12.45;45.29;101258.06;4979430;28;20065;-66
2021/10/28 16:26:41;;;;;;;8.25;5.22;;;;;;;12.34;45.75;101266.38;4962049;28;20042;-66
2021/10/28 16:29:09;;;;;;;9.35;5.32;;;;;;;12.31;45.87;101265.63;4982520;28;20069;-66
2021/10/28 16:31:35;;;;;;;11.35;4.85;;;;;;;12.22;46.05;101266.84;4977920;28;20038;-65
2021/10/28 16:34:01;;;;;;;6.40;4.90;;;;;;;12.16;46.35;101264.50;4979294;28;20041;-65
2021/10/28 16:36:27;;;;;;;7.10;5.18;;;;;;;12.11;46.84;101256.84;4979202;28;20046;-65
2021/10/28 16:38:53;;;;;;;13.20;4.97;;;;;;;12.13;46.06;101262.84;4949570;28;20040;-65
2021/10/28 16:41:19;;;;;;;8.40;5.57;;;;;;;12.04;46.22;101260.59;4973876;28;20044;-66
2021/10/28 16:43:45;;;;;;;8.80;5.30;;;;;;;11.97;46.36;101262.59;4960707;28;20605;-65
2021/10/28 16:46:11;;;;;;;10.75;5.53;;;;;;;11.78;47.30;101254.63;4979605;28;20343;-65
2021/10/28 16:48:37;;;;;;;11.52;6.95;;;;;;;11.78;46.92;101261.63;4969156;28;20042;-65
2021/10/28 16:51:04;;;;;;;7.93;5.28;;;;;;;11.83;47.51;101259.69;4978485;28;20042;-66
2021/10/28 16:53:30;;;;;;;11.85;6.30;;;;;;;11.84;46.93;101259.63;4977987;28;20034;-65
2021/10/28 16:55:55;;;;;;;7.20;5.60;;;;;;;11.75;46.60;101252.06;4980976;28;20402;-66
2021/10/28 16:58:21;;;;;;;7.60;4.65;;;;;;;11.68;46.61;101255.84;4985848;28;20084;-66
2021/10/28 17:00:48;;;;;;;9.82;5.60;;;;;;;11.53;47.73;101256.44;4983043;28;20120;-65
2021/10/28 17:03:13;;;;;;;9.50;5.18;;;;;;;11.53;47.73;101256.44;4980521;28;20080;-66
2021/10/28 17:05:39;;;;;;;10.82;5.78;;;;;;;11.66;47.23;101255.94;4979011;28;20499;-66
2021/10/28 17:08:05;;;;;;;11.48;5.70;;;;;;;11.52;47.54;101254.75;4969035;28;20050;-65
2021/10/28 17:10:30;;;;;;;10.25;5.55;;;;;;;11.49;47.36;101252.25;4979579;28;20055;-65
2021/10/28 17:12:56;;;;;;;9.93;5.28;;;;;;;11.42;47.25;101249.84;4972975;28;20041;-65
2021/10/28 17:15:22;;;;;;;9.52;5.57;;;;;;;11.32;47.92;101250.25;4965670;28;20070;-65
2021/10/28 17:17:47;;;;;;;12.93;5.35;;;;;;;11.36;47.81;101244.84;4985118;28;20113;-66
2021/10/28 17:20:13;;;;;;;8.73;5.05;;;;;;;11.24;47.65;101247.91;4980001;28;20037;-66
2021/10/28 17:22:38;;;;;;;13.95;7.55;;;;;;;11.31;48.05;101246.78;4984791;28;20034;-65
2021/10/28 17:25:07;;;;;;;9.63;5.55;;;;;;;11.30;47.57;101245.06;4981606;28;20038;-65
2021/10/28 17:27:33;;;;;;;9.98;4.57;;;;;;;11.25;47.73;101237.38;4982415;28;20046;-65
2021/10/28 17:29:59;;;;;;;5.18;4.20;;;;;;;11.29;47.48;101232.06;4982788;28;20031;-65
2021/10/28 17:32:26;;;;;;;7.05;4.78;;;;;;;10.88;48.58;101244.88;4982320;28;20046;-65
2021/10/28 17:34:51;;;;;;;11.20;6.00;;;;;;;11.19;47.74;101236.75;4984743;28;20144;-65
2021/10/28 17:37:17;;;;;;;9.40;5.00;;;;;;;11.22;47.19;101224.44;4977825;28;20515;-65
2021/10/28 17:39:42;;;;;;;6.43;4.47;;;;;;;11.08;47.75;101236.31;4965639;28;20121;-65
2021/10/28 17:42:08;;;;;;;7.93;4.68;;;;;;;11.30;46.92;101239.84;4980203;28;20077;-65
2021/10/28 17:44:42;;;;;;;7.03;4.20;;;;;;;11.12;47.07;101230.06;4981927;28;20057;-66
2021/10/28 17:47:08;;;;;;;5.60;4.18;;;;;;;10.95;47.96;101231.53;4980344;28;20164;-65
2021/10/28 17:49:36;;;;;;;6.32;4.10;;;;;;;10.95;47.56;101228.03;4982027;28;20048;-64
2021/10/28 17:52:04;;;;;;;10.25;4.30;;;;;;;10.95;47.45;101226.31;4981649;28;20565;-65
2021/10/28 17:54:30;;;;;;;6.93;4.78;;;;;;;10.75;48.23;101223.47;4959324;28;20113;-65
2021/10/28 17:56:56;;;;;;;8.15;5.03;;;;;;;10.74;48.16;101221.78;4962719;28;20039;-65
2021/10/28 17:59:22;;;;;;;8.88;5.38;;;;;;;10.83;47.66;101224.09;4979218;28;20038;-64
2021/10/28 18:01:48;;;;;;;7.93;4.00;;;;;;;10.70;48.22;101217.56;4964480;28;20566;-65
2021/10/28 18:04:13;;;;;;;9.65;4.43;;;;;;;10.74;48.16;101224.41;4980819;28;20034;-65
2021/10/28 18:06:39;;;;;;;6.53;4.20;;;;;;;10.66;48.83;101231.66;4978372;28;20088;-65
2021/10/28 18:09:06;;;;;;;8.43;3.95;;;;;;;10.72;47.46;101227.06;4966929;28;20101;-65
2021/10/28 18:11:32;;;;;;;7.20;3.97;;;;;;;10.73;47.71;101217.47;4962802;28;20555;-67
2021/10/28 18:13:59;;;;;;;7.65;4.05;;;;;;;10.57;48.13;101220.63;4965855;28;20196;-65
2021/10/28 18:16:26;;;;;;;6.90;3.88;;;;;;;10.51;48.21;101214.75;4975867;28;20042;-65
2021/10/28 18:18:56;;;;;;;7.30;4.43;;;;;;;10.38;48.68;101217.78;4979227;28;20093;-65
2021/10/28 18:21:24;;;;;;;6.47;4.47;;;;;;;10.54;48.60;101218.09;4982584;28;20595;-65
2021/10/28 18:23:50;;;;;;;4.55;3.85;;;;;;;10.53;48.20;101218.19;4981393;28;20624;-65
2021/10/28 18:26:19;;;;;;;6.05;3.50;;;;;;;10.43;48.47;101210.63;4977213;28;20046;-64
2021/10/28 18:28:44;;;;;;;6.13;4.53;;;;;;;10.44;48.46;101216.72;4977256;28;20546;-65
2021/10/28 18:31:10;;;;;;;5.70;4.05;;;;;;;10.43;48.61;101213.22;4978562;28;20330;-66
2021/10/28 18:33:35;;;;;;;6.68;4.20;;;;;;;10.34;48.56;101207.47;4977472;28;20081;-65
2021/10/28 18:36:02;;;;;;;7.47;4.60;;;;;;;10.37;48.69;101209.97;4980069;28;20043;-65
2021/10/28 18:38:30;;;;;;;7.55;4.55;;;;;;;10.36;48.98;101209.13;4980210;28;20038;-65
2021/10/28 18:40:56;;;;;;;6.78;3.85;;;;;;;10.38;47.78;101204.72;4979412;28;20493;-65
2021/10/28 18:43:21;;;;;;;5.63;3.85;;;;;;;10.31;47.86;101194.53;4969324;28;20038;-66
2021/10/28 18:45:48;;;;;;;7.13;4.22;;;;;;;10.20;48.76;101200.09;4982027;28;20050;-64
2021/10/28 18:48:14;;;;;;;7.35;4.03;;;;;;;10.11;48.96;101201.25;4981410;28;20022;-65
2021/10/28 18:50:39;;;;;;;5.82;4.65;;;;;;;9.97;48.95;101193.88;4965991;28;20474;-65
2021/10/28 18:53:05;;;;;;;7.70;4.55;;;;;;;10.01;48.64;101194.63;4976600;28;20049;-65
2021/10/28 18:55:31;;;;;;;6.60;4.03;;;;;;;9.88;48.68;101193.31;4987415;28;20140;-65
2021/10/28 18:57:56;;;;;;;7.40;5.28;;;;;;;9.86;49.55;101198.59;4996643;28;20038;-65
2021/10/28 19:00:23;;;;;;;7.80;4.70;;;;;;;9.84;49.60;101196.94;4995856;28;20109;-65
2021/10/28 19:02:48;;;;;;;5.70;4.10;;;;;;;9.81;49.72;101179.59;4984260;28;20034;-64
2021/10/28 19:05:14;;;;;;;10.30;5.70;;;;;;;9.82;49.93;101183.09;4983360;28;20446;-65
2021/10/28 19:07:39;;;;;;;14.55;6.25;;;;;;;9.85;49.60;101170.75;4985599;28;20124;-65
2021/10/28 19:10:06;;;;;;;7.50;5.25;;;;;;;9.92;49.25;101172.31;4980386;28;20037;-65
2021/10/28 19:12:32;;;;;;;16.60;10.05;;;;;;;9.96;49.26;101167.81;4961757;28;20046;-65
2021/10/28 19:14:57;;;;;;;8.38;4.47;;;;;;;9.91;48.84;101172.34;4981349;28;20034;-65
2021/10/28 19:17:23;;;;;;;7.80;4.70;;;;;;;9.85;48.96;101169.91;4978572;28;20042;-64
2021/10/28 19:19:49;;;;;;;5.63;4.30;;;;;;;9.70;50.18;101166.88;4979181;28;20037;-67
2021/10/28 19:22:14;;;;;;;6.15;4.50;;;;;;;9.78;49.36;101164.84;4949211;28;20185;-65
2021/10/28 19:24:40;;;;;;;7.63;4.30;;;;;;;9.71;49.89;101168.56;4983360;28;20552;-65
2021/10/28 19:27:06;;;;;;;8.00;3.55;;;;;;;9.62;49.54;101171.47;4981411;28;20046;-65
2021/10/28 19:29:36;;;;;;;6.78;3.55;;;;;;;9.65;49.39;101163.53;4979733;28;20750;-64
2021/10/28 19:32:10;;;;;;;6.38;3.75;;;;;;;9.63;50.05;101169.72;4961801;28;20042;-67
2021/10/28 19:34:40;;;;;;;7.50;4.20;;;;;;;9.64;49.90;101167.06;4970943;28;20033;-65
2021/10/28 19:37:17;;;;;;;6.95;4.28;;;;;;;9.55;49.57;101162.13;4980754;28;20515;-65
2021/10/28 19:45:17;;;;;;;5.25;3.08;;;;;;;9.58;49.72;101160.25;4980125;28;20051;-65
2021/10/28 19:47:43;;;;;;;6.05;3.55;;;;;;;9.77;49.08;101152.72;4983284;28;20390;-64
2021/10/28 19:50:12;;;;;;;5.53;3.30;;;;;;;9.83;49.26;101153.44;4977805;28;20573;-62
2021/10/28 19:52:39;;;;;;;6.90;3.85;;;;;;;9.79;49.06;101156.16;4978649;28;21236;-65
2021/10/28 19:55:05;;;;;;;6.18;4.30;;;;;;;9.86;48.29;101156.81;4967605;28;20057;-66